sensor_id;sensor_type;location;lat;lon;timestamp;pressure;altitude;pressure_sealevel;temperature;humidity
68179;BME280;69812;42.632;23.440;2023-05-01T00:01:36;95083.03;;;6.13;87.84
68179;BME280;69812;42.632;23.440;2023-05-01T00:04:02;95072.88;;;6.00;87.99
68179;BME280;69812;42.632;23.440;2023-05-01T00:06:27;95087.09;;;6.15;87.89
68179;BME280;69812;42.632;23.440;2023-05-01T00:08:53;95092.53;;;6.35;88.38
68179;BME280;69812;42.632;23.440;2023-05-01T00:11:18;95084.88;;;6.11;88.55
68179;BME280;69812;42.632;23.440;2023-05-01T00:13:44;95102.22;;;6.06;88.92
68179;BME280;69812;42.632;23.440;2023-05-01T00:16:10;95097.13;;;5.93;89.10
68179;BME280;69812;42.632;23.440;2023-05-01T00:18:37;95105.19;;;6.00;88.72
68179;BME280;69812;42.632;23.440;2023-05-01T00:21:03;95098.03;;;5.92;88.87
68179;BME280;69812;42.632;23.440;2023-05-01T00:23:28;95096.13;;;5.95;89.15
68179;BME280;69812;42.632;23.440;2023-05-01T00:25:56;95095.31;;;5.82;88.97
68179;BME280;69812;42.632;23.440;2023-05-01T00:28:25;95080.28;;;5.66;88.57
68179;BME280;69812;42.632;23.440;2023-05-01T00:30:51;95097.00;;;5.58;88.29
68179;BME280;69812;42.632;23.440;2023-05-01T00:33:29;95096.88;;;5.59;88.15
68179;BME280;69812;42.632;23.440;2023-05-01T00:35:54;95098.84;;;5.55;87.76
68179;BME280;69812;42.632;23.440;2023-05-01T00:38:20;95096.38;;;5.54;87.69
68179;BME280;69812;42.632;23.440;2023-05-01T00:40:46;95102.28;;;5.54;88.13
68179;BME280;69812;42.632;23.440;2023-05-01T00:43:11;95095.59;;;5.41;88.37
68179;BME280;69812;42.632;23.440;2023-05-01T00:45:38;95103.72;;;5.46;88.12
68179;BME280;69812;42.632;23.440;2023-05-01T00:48:06;95102.41;;;5.40;88.23
68179;BME280;69812;42.632;23.440;2023-05-01T00:50:34;95101.88;;;5.22;87.85
68179;BME280;69812;42.632;23.440;2023-05-01T00:52:59;95103.13;;;5.29;88.18
68179;BME280;69812;42.632;23.440;2023-05-01T00:55:25;95106.56;;;5.28;87.91
68179;BME280;69812;42.632;23.440;2023-05-01T00:57:54;95095.34;;;5.18;88.14
68179;BME280;69812;42.632;23.440;2023-05-01T01:00:20;95106.88;;;5.24;87.83
68179;BME280;69812;42.632;23.440;2023-05-01T01:02:48;95108.63;;;5.23;88.03
68179;BME280;69812;42.632;23.440;2023-05-01T01:05:14;95114.09;;;5.30;87.84
68179;BME280;69812;42.632;23.440;2023-05-01T01:07:48;95119.38;;;5.27;88.61
68179;BME280;69812;42.632;23.440;2023-05-01T01:11:11;95115.53;;;5.21;89.02
68179;BME280;69812;42.632;23.440;2023-05-01T01:15:53;95115.59;;;5.07;88.72
68179;BME280;69812;42.632;23.440;2023-05-01T01:18:39;95129.75;;;5.11;88.63
68179;BME280;69812;42.632;23.440;2023-05-01T01:22:01;95134.97;;;5.22;88.94
68179;BME280;69812;42.632;23.440;2023-05-01T01:29:46;95131.41;;;5.12;90.08
68179;BME280;69812;42.632;23.440;2023-05-01T01:32:40;95137.63;;;5.21;90.02
68179;BME280;69812;42.632;23.440;2023-05-01T01:35:19;95140.16;;;5.21;90.31
68179;BME280;69812;42.632;23.440;2023-05-01T01:40:40;95124.38;;;5.15;90.16
68179;BME280;69812;42.632;23.440;2023-05-01T01:43:09;95137.59;;;5.08;90.11
68179;BME280;69812;42.632;23.440;2023-05-01T01:45:46;95131.38;;;4.99;89.95
68179;BME280;69812;42.632;23.440;2023-05-01T01:48:16;95130.34;;;4.89;89.43
68179;BME280;69812;42.632;23.440;2023-05-01T01:50:44;95126.25;;;4.73;89.38
68179;BME280;69812;42.632;23.440;2023-05-01T01:53:12;95117.63;;;4.89;89.50
68179;BME280;69812;42.632;23.440;2023-05-01T01:55:42;95117.94;;;4.84;88.87
68179;BME280;69812;42.632;23.440;2023-05-01T01:58:09;95126.66;;;4.80;88.61
68179;BME280;69812;42.632;23.440;2023-05-01T02:00:36;95120.44;;;4.71;88.98
68179;BME280;69812;42.632;23.440;2023-05-01T02:03:03;95125.44;;;4.73;88.87
68179;BME280;69812;42.632;23.440;2023-05-01T02:05:30;95131.06;;;4.64;88.75
68179;BME280;69812;42.632;23.440;2023-05-01T02:07:57;95115.78;;;4.51;88.38
68179;BME280;69812;42.632;23.440;2023-05-01T02:10:24;95122.50;;;4.52;88.44
68179;BME280;69812;42.632;23.440;2023-05-01T02:12:53;95130.84;;;4.54;88.87
68179;BME280;69812;42.632;23.440;2023-05-01T02:15:21;95129.22;;;4.53;88.40
68179;BME280;69812;42.632;23.440;2023-05-01T02:17:47;95125.78;;;4.54;88.08
68179;BME280;69812;42.632;23.440;2023-05-01T02:20:14;95117.00;;;4.45;88.28
68179;BME280;69812;42.632;23.440;2023-05-01T02:22:41;95117.72;;;4.47;88.29
68179;BME280;69812;42.632;23.440;2023-05-01T02:25:11;95123.53;;;4.49;88.22
68179;BME280;69812;42.632;23.440;2023-05-01T02:28:12;95121.88;;;4.48;88.21
68179;BME280;69812;42.632;23.440;2023-05-01T02:30:40;95118.97;;;4.55;88.26
68179;BME280;69812;42.632;23.440;2023-05-01T02:33:06;95113.56;;;4.59;88.60
68179;BME280;69812;42.632;23.440;2023-05-01T02:35:38;95124.63;;;4.45;88.89
68179;BME280;69812;42.632;23.440;2023-05-01T02:38:03;95124.50;;;4.34;89.28
68179;BME280;69812;42.632;23.440;2023-05-01T02:40:29;95115.50;;;4.28;89.24
68179;BME280;69812;42.632;23.440;2023-05-01T02:42:56;95109.19;;;4.21;88.74
68179;BME280;69812;42.632;23.440;2023-05-01T02:45:28;95104.63;;;4.26;88.87
68179;BME280;69812;42.632;23.440;2023-05-01T02:47:58;95112.63;;;4.20;88.64
68179;BME280;69812;42.632;23.440;2023-05-01T02:50:25;95099.97;;;4.06;88.36
68179;BME280;69812;42.632;23.440;2023-05-01T02:52:51;95121.97;;;4.20;87.85
68179;BME280;69812;42.632;23.440;2023-05-01T02:55:17;95116.91;;;4.20;88.02
68179;BME280;69812;42.632;23.440;2023-05-01T02:57:45;95123.00;;;4.17;88.52
68179;BME280;69812;42.632;23.440;2023-05-01T03:00:11;95138.72;;;4.37;89.41
68179;BME280;69812;42.632;23.440;2023-05-01T03:02:38;95138.94;;;4.46;89.59
68179;BME280;69812;42.632;23.440;2023-05-01T03:05:19;95131.00;;;4.38;89.88
68179;BME280;69812;42.632;23.440;2023-05-01T03:07:46;95154.06;;;4.35;89.84
68179;BME280;69812;42.632;23.440;2023-05-01T03:10:12;95152.88;;;4.41;90.49
68179;BME280;69812;42.632;23.440;2023-05-01T03:12:37;95152.25;;;4.37;90.62
68179;BME280;69812;42.632;23.440;2023-05-01T03:15:03;95157.22;;;4.39;90.73
68179;BME280;69812;42.632;23.440;2023-05-01T03:17:33;95145.03;;;4.17;90.52
68179;BME280;69812;42.632;23.440;2023-05-01T03:19:58;95150.00;;;4.18;90.57
68179;BME280;69812;42.632;23.440;2023-05-01T03:22:27;95140.06;;;4.01;90.75
68179;BME280;69812;42.632;23.440;2023-05-01T03:24:52;95154.13;;;4.06;90.99
68179;BME280;69812;42.632;23.440;2023-05-01T03:27:18;95149.88;;;3.93;90.90
68179;BME280;69812;42.632;23.440;2023-05-01T03:29:43;95155.78;;;3.93;90.60
68179;BME280;69812;42.632;23.440;2023-05-01T03:32:08;95153.13;;;3.95;89.93
68179;BME280;69812;42.632;23.440;2023-05-01T03:34:34;95160.94;;;4.06;90.53
68179;BME280;69812;42.632;23.440;2023-05-01T03:36:59;95151.13;;;4.00;90.33
68179;BME280;69812;42.632;23.440;2023-05-01T03:39:25;95162.63;;;4.20;90.43
68179;BME280;69812;42.632;23.440;2023-05-01T03:41:50;95158.28;;;4.07;90.62
68179;BME280;69812;42.632;23.440;2023-05-01T03:44:18;95167.78;;;4.18;90.78
68179;BME280;69812;42.632;23.440;2023-05-01T03:46:43;95175.38;;;4.32;90.96
68179;BME280;69812;42.632;23.440;2023-05-01T03:49:09;95162.91;;;4.42;91.07
68179;BME280;69812;42.632;23.440;2023-05-01T03:51:36;95165.44;;;4.57;91.34
68179;BME280;69812;42.632;23.440;2023-05-01T03:54:02;95162.34;;;4.79;91.78
68179;BME280;69812;42.632;23.440;2023-05-01T03:56:27;95168.69;;;4.86;91.56
68179;BME280;69812;42.632;23.440;2023-05-01T03:58:53;95175.91;;;4.92;91.66
68179;BME280;69812;42.632;23.440;2023-05-01T04:01:18;95181.38;;;5.26;92.13
68179;BME280;69812;42.632;23.440;2023-05-01T04:03:44;95167.47;;;5.95;92.94
68179;BME280;69812;42.632;23.440;2023-05-01T04:06:10;95180.69;;;6.98;93.47
68179;BME280;69812;42.632;23.440;2023-05-01T04:08:39;95178.56;;;7.97;94.22
68179;BME280;69812;42.632;23.440;2023-05-01T04:11:04;95179.50;;;8.84;93.32
68179;BME280;69812;42.632;23.440;2023-05-01T04:13:30;95179.63;;;9.78;92.27
68179;BME280;69812;42.632;23.440;2023-05-01T04:15:56;95181.59;;;10.67;91.31
68179;BME280;69812;42.632;23.440;2023-05-01T04:18:23;95168.47;;;11.48;87.96
68179;BME280;69812;42.632;23.440;2023-05-01T04:20:49;95168.59;;;12.13;87.13
68179;BME280;69812;42.632;23.440;2023-05-01T04:23:15;95165.19;;;12.68;82.42
68179;BME280;69812;42.632;23.440;2023-05-01T04:25:40;95182.25;;;13.32;72.56
68179;BME280;69812;42.632;23.440;2023-05-01T04:28:06;95174.09;;;13.89;66.00
68179;BME280;69812;42.632;23.440;2023-05-01T04:30:34;95181.88;;;14.74;60.11
68179;BME280;69812;42.632;23.440;2023-05-01T04:33:00;95182.66;;;15.42;58.93
68179;BME280;69812;42.632;23.440;2023-05-01T04:35:34;95176.69;;;16.30;53.41
68179;BME280;69812;42.632;23.440;2023-05-01T04:38:01;95174.63;;;16.96;50.71
68179;BME280;69812;42.632;23.440;2023-05-01T04:40:26;95178.56;;;17.76;46.75
68179;BME280;69812;42.632;23.440;2023-05-01T04:42:54;95181.06;;;17.23;47.69
68179;BME280;69812;42.632;23.440;2023-05-01T04:45:20;95172.53;;;17.76;46.69
68179;BME280;69812;42.632;23.440;2023-05-01T04:47:45;95175.78;;;18.67;44.48
68179;BME280;69812;42.632;23.440;2023-05-01T04:50:11;95178.09;;;19.28;41.78
68179;BME280;69812;42.632;23.440;2023-05-01T04:52:39;95182.75;;;19.61;41.41
68179;BME280;69812;42.632;23.440;2023-05-01T04:55:05;95187.94;;;20.45;39.00
68179;BME280;69812;42.632;23.440;2023-05-01T04:57:30;95192.41;;;20.51;39.60
68179;BME280;69812;42.632;23.440;2023-05-01T04:59:56;95189.06;;;21.32;37.35
68179;BME280;69812;42.632;23.440;2023-05-01T05:02:21;95184.69;;;21.93;36.20
68179;BME280;69812;42.632;23.440;2023-05-01T05:04:56;95191.00;;;22.57;35.42
68179;BME280;69812;42.632;23.440;2023-05-01T05:07:24;95186.63;;;23.03;35.11
68179;BME280;69812;42.632;23.440;2023-05-01T05:09:49;95195.28;;;23.67;33.64
68179;BME280;69812;42.632;23.440;2023-05-01T05:12:17;95192.28;;;23.38;33.76
68179;BME280;69812;42.632;23.440;2023-05-01T05:14:45;95207.84;;;23.26;33.36
68179;BME280;69812;42.632;23.440;2023-05-01T05:17:12;95209.38;;;23.41;33.03
68179;BME280;69812;42.632;23.440;2023-05-01T05:19:37;95201.47;;;23.79;32.42
68179;BME280;69812;42.632;23.440;2023-05-01T05:22:05;95210.94;;;24.05;31.89
68179;BME280;69812;42.632;23.440;2023-05-01T05:24:31;95200.56;;;24.35;31.59
68179;BME280;69812;42.632;23.440;2023-05-01T05:26:57;95192.56;;;24.86;31.55
68179;BME280;69812;42.632;23.440;2023-05-01T05:29:23;95206.81;;;25.27;30.47
68179;BME280;69812;42.632;23.440;2023-05-01T05:31:50;95224.63;;;23.82;32.70
68179;BME280;69812;42.632;23.440;2023-05-01T05:34:16;95229.81;;;22.73;35.04
68179;BME280;69812;42.632;23.440;2023-05-01T05:36:41;95224.75;;;22.72;35.36
68179;BME280;69812;42.632;23.440;2023-05-01T05:41:37;95224.56;;;22.73;35.02
68179;BME280;69812;42.632;23.440;2023-05-01T05:44:02;95231.53;;;22.08;36.77
68179;BME280;69812;42.632;23.440;2023-05-01T05:46:28;95226.94;;;22.88;35.11
68179;BME280;69812;42.632;23.440;2023-05-01T05:48:56;95223.63;;;23.13;35.23
68179;BME280;69812;42.632;23.440;2023-05-01T05:51:24;95227.53;;;24.43;34.13
68179;BME280;69812;42.632;23.440;2023-05-01T05:53:50;95223.44;;;25.62;31.42
68179;BME280;69812;42.632;23.440;2023-05-01T05:56:16;95233.34;;;26.85;28.31
68179;BME280;69812;42.632;23.440;2023-05-01T05:58:43;95225.72;;;27.24;28.42
68179;BME280;69812;42.632;23.440;2023-05-01T06:01:09;95231.91;;;28.09;27.29
68179;BME280;69812;42.632;23.440;2023-05-01T06:03:35;95238.97;;;28.81;26.30
68179;BME280;69812;42.632;23.440;2023-05-01T06:06:01;95214.63;;;30.10;26.58
68179;BME280;69812;42.632;23.440;2023-05-01T06:08:26;95239.66;;;30.77;23.54
68179;BME280;69812;42.632;23.440;2023-05-01T06:10:52;95230.66;;;31.41;22.99
68179;BME280;69812;42.632;23.440;2023-05-01T06:13:17;95224.63;;;32.23;21.96
68179;BME280;69812;42.632;23.440;2023-05-01T06:15:43;95236.53;;;33.31;21.08
68179;BME280;69812;42.632;23.440;2023-05-01T06:18:11;95239.03;;;34.31;19.64
68179;BME280;69812;42.632;23.440;2023-05-01T06:20:37;95233.75;;;33.52;20.11
68179;BME280;69812;42.632;23.440;2023-05-01T06:23:05;95236.97;;;33.49;20.37
68179;BME280;69812;42.632;23.440;2023-05-01T06:25:42;95229.03;;;32.84;21.22
68179;BME280;69812;42.632;23.440;2023-05-01T06:28:17;95223.53;;;33.69;20.05
68179;BME280;69812;42.632;23.440;2023-05-01T06:30:43;95225.69;;;33.67;19.87
68179;BME280;69812;42.632;23.440;2023-05-01T06:33:08;95233.28;;;33.40;20.78
68179;BME280;69812;42.632;23.440;2023-05-01T06:35:37;95224.25;;;31.27;22.62
68179;BME280;69812;42.632;23.440;2023-05-01T06:38:03;95229.75;;;30.52;23.08
68179;BME280;69812;42.632;23.440;2023-05-01T06:40:29;95230.94;;;30.29;23.55
68179;BME280;69812;42.632;23.440;2023-05-01T06:42:56;95224.59;;;30.83;22.88
68179;BME280;69812;42.632;23.440;2023-05-01T06:45:24;95222.81;;;33.64;20.68
68179;BME280;69812;42.632;23.440;2023-05-01T06:47:51;95227.41;;;34.51;19.76
68179;BME280;69812;42.632;23.440;2023-05-01T06:50:21;95223.91;;;33.08;20.69
68179;BME280;69812;42.632;23.440;2023-05-01T06:52:47;95227.59;;;34.30;19.70
68179;BME280;69812;42.632;23.440;2023-05-01T06:55:12;95230.50;;;35.87;17.96
68179;BME280;69812;42.632;23.440;2023-05-01T06:57:40;95223.34;;;35.45;18.50
68179;BME280;69812;42.632;23.440;2023-05-01T07:00:06;95229.47;;;35.26;18.81
68179;BME280;69812;42.632;23.440;2023-05-01T07:02:36;95223.22;;;35.55;19.17
68179;BME280;69812;42.632;23.440;2023-05-01T07:05:02;95220.41;;;36.17;17.70
68179;BME280;69812;42.632;23.440;2023-05-01T07:07:31;95227.13;;;36.28;17.96
68179;BME280;69812;42.632;23.440;2023-05-01T07:09:58;95233.44;;;33.59;20.06
68179;BME280;69812;42.632;23.440;2023-05-01T07:15:30;95219.84;;;31.58;22.63
68179;BME280;69812;42.632;23.440;2023-05-01T07:17:55;95223.28;;;31.64;22.86
68179;BME280;69812;42.632;23.440;2023-05-01T07:20:22;95236.78;;;32.65;21.44
68179;BME280;69812;42.632;23.440;2023-05-01T07:22:47;95234.91;;;35.40;18.74
68179;BME280;69812;42.632;23.440;2023-05-01T07:25:18;95235.88;;;36.48;17.97
68179;BME280;69812;42.632;23.440;2023-05-01T07:27:44;95231.97;;;35.17;19.37
68179;BME280;69812;42.632;23.440;2023-05-01T07:30:10;95236.13;;;36.79;17.56
68179;BME280;69812;42.632;23.440;2023-05-01T07:32:56;95231.00;;;35.89;18.16
68179;BME280;69812;42.632;23.440;2023-05-01T07:35:22;95236.28;;;37.97;16.67
68179;BME280;69812;42.632;23.440;2023-05-01T07:37:48;95234.41;;;37.75;16.37
68179;BME280;69812;42.632;23.440;2023-05-01T07:40:19;95239.22;;;38.63;15.84
68179;BME280;69812;42.632;23.440;2023-05-01T07:42:44;95230.47;;;38.17;16.33
68179;BME280;69812;42.632;23.440;2023-05-01T07:45:12;95232.41;;;37.44;16.76
68179;BME280;69812;42.632;23.440;2023-05-01T07:47:37;95234.09;;;36.43;17.57
68179;BME280;69812;42.632;23.440;2023-05-01T07:50:03;95231.03;;;34.84;18.10
68179;BME280;69812;42.632;23.440;2023-05-01T07:52:29;95233.00;;;34.97;18.63
68179;BME280;69812;42.632;23.440;2023-05-01T07:54:54;95231.47;;;34.91;18.13
68179;BME280;69812;42.632;23.440;2023-05-01T07:57:20;95230.63;;;35.20;18.26
68179;BME280;69812;42.632;23.440;2023-05-01T07:59:47;95223.94;;;35.23;18.08
68179;BME280;69812;42.632;23.440;2023-05-01T08:02:15;95230.13;;;35.56;17.74
68179;BME280;69812;42.632;23.440;2023-05-01T08:04:40;95232.66;;;34.85;18.46
68179;BME280;69812;42.632;23.440;2023-05-01T08:07:06;95230.69;;;34.08;19.24
68179;BME280;69812;42.632;23.440;2023-05-01T08:09:34;95227.09;;;31.05;22.36
68179;BME280;69812;42.632;23.440;2023-05-01T08:12:02;95227.38;;;27.59;26.86
68179;BME280;69812;42.632;23.440;2023-05-01T08:14:28;95231.06;;;24.73;30.13
68179;BME280;69812;42.632;23.440;2023-05-01T08:16:53;95235.44;;;23.61;33.86
68179;BME280;69812;42.632;23.440;2023-05-01T08:19:19;95228.69;;;22.36;34.79
68179;BME280;69812;42.632;23.440;2023-05-01T08:21:45;95229.81;;;21.40;39.11
68179;BME280;69812;42.632;23.440;2023-05-01T08:24:11;95238.81;;;20.35;39.44
68179;BME280;69812;42.632;23.440;2023-05-01T08:26:36;95234.53;;;19.70;39.75
68179;BME280;69812;42.632;23.440;2023-05-01T08:29:02;95226.91;;;19.26;41.44
68179;BME280;69812;42.632;23.440;2023-05-01T08:31:30;95233.09;;;18.74;44.02
68179;BME280;69812;42.632;23.440;2023-05-01T08:33:58;95238.53;;;18.64;44.87
68179;BME280;69812;42.632;23.440;2023-05-01T08:36:23;95227.41;;;18.11;45.74
68179;BME280;69812;42.632;23.440;2023-05-01T08:38:48;95234.06;;;18.13;45.70
68179;BME280;69812;42.632;23.440;2023-05-01T08:41:21;95225.63;;;17.96;43.83
68179;BME280;69812;42.632;23.440;2023-05-01T08:43:49;95225.97;;;18.08;41.81
68179;BME280;69812;42.632;23.440;2023-05-01T08:49:03;95216.94;;;18.19;44.13
68179;BME280;69812;42.632;23.440;2023-05-01T08:51:31;95223.03;;;18.41;42.17
68179;BME280;69812;42.632;23.440;2023-05-01T08:53:58;95229.03;;;18.12;43.54
68179;BME280;69812;42.632;23.440;2023-05-01T08:56:29;95211.09;;;18.02;43.83
68179;BME280;69812;42.632;23.440;2023-05-01T08:58:57;95218.59;;;18.35;44.00
68179;BME280;69812;42.632;23.440;2023-05-01T09:01:23;95225.56;;;18.49;44.31
68179;BME280;69812;42.632;23.440;2023-05-01T09:03:49;95212.56;;;18.04;44.08
68179;BME280;69812;42.632;23.440;2023-05-01T09:06:15;95219.13;;;18.15;42.21
68179;BME280;69812;42.632;23.440;2023-05-01T09:08:43;95206.75;;;18.17;42.82
68179;BME280;69812;42.632;23.440;2023-05-01T09:11:10;95211.41;;;18.07;44.21
68179;BME280;69812;42.632;23.440;2023-05-01T09:13:37;95213.91;;;18.15;43.30
68179;BME280;69812;42.632;23.440;2023-05-01T09:16:04;95210.25;;;18.24;43.09
68179;BME280;69812;42.632;23.440;2023-05-01T09:18:29;95219.53;;;18.19;41.22
68179;BME280;69812;42.632;23.440;2023-05-01T09:21:05;95198.84;;;17.96;42.21
68179;BME280;69812;42.632;23.440;2023-05-01T09:23:30;95205.09;;;17.86;42.20
68179;BME280;69812;42.632;23.440;2023-05-01T09:25:56;95210.91;;;17.89;41.12
68179;BME280;69812;42.632;23.440;2023-05-01T09:28:45;95216.66;;;17.76;41.79
68179;BME280;69812;42.632;23.440;2023-05-01T09:31:26;95203.31;;;17.87;40.63
68179;BME280;69812;42.632;23.440;2023-05-01T09:34:05;95212.16;;;17.93;40.18
68179;BME280;69812;42.632;23.440;2023-05-01T09:36:33;95215.41;;;18.10;40.42
68179;BME280;69812;42.632;23.440;2023-05-01T09:39:21;95195.97;;;17.91;40.52
68179;BME280;69812;42.632;23.440;2023-05-01T09:41:52;95212.28;;;18.14;39.92
68179;BME280;69812;42.632;23.440;2023-05-01T09:44:18;95211.41;;;18.37;40.21
68179;BME280;69812;42.632;23.440;2023-05-01T09:46:43;95205.94;;;18.17;39.15
68179;BME280;69812;42.632;23.440;2023-05-01T09:49:09;95208.00;;;18.36;38.93
68179;BME280;69812;42.632;23.440;2023-05-01T09:51:36;95204.13;;;18.47;39.16
68179;BME280;69812;42.632;23.440;2023-05-01T09:54:04;95208.34;;;18.78;39.90
68179;BME280;69812;42.632;23.440;2023-05-01T09:56:45;95194.00;;;18.82;38.57
68179;BME280;69812;42.632;23.440;2023-05-01T09:59:14;95196.16;;;18.78;38.52
68179;BME280;69812;42.632;23.440;2023-05-01T10:01:45;95198.47;;;18.73;37.39
68179;BME280;69812;42.632;23.440;2023-05-01T10:04:28;95196.16;;;18.63;38.27
68179;BME280;69812;42.632;23.440;2023-05-01T10:06:54;95188.44;;;18.85;38.13
68179;BME280;69812;42.632;23.440;2023-05-01T10:09:27;95195.66;;;19.04;35.37
68179;BME280;69812;42.632;23.440;2023-05-01T10:11:56;95191.13;;;19.13;36.33
68179;BME280;69812;42.632;23.440;2023-05-01T10:14:23;95193.94;;;19.33;37.28
68179;BME280;69812;42.632;23.440;2023-05-01T10:16:52;95200.25;;;19.24;37.90
68179;BME280;69812;42.632;23.440;2023-05-01T10:19:20;95194.38;;;19.15;36.91
68179;BME280;69812;42.632;23.440;2023-05-01T10:21:46;95185.44;;;19.46;36.52
68179;BME280;69812;42.632;23.440;2023-05-01T10:24:11;95176.06;;;20.01;35.34
68179;BME280;69812;42.632;23.440;2023-05-01T10:26:40;95186.13;;;20.04;34.53
68179;BME280;69812;42.632;23.440;2023-05-01T10:29:07;95176.50;;;19.77;34.68
68179;BME280;69812;42.632;23.440;2023-05-01T10:31:32;95189.19;;;20.15;34.29
68179;BME280;69812;42.632;23.440;2023-05-01T10:33:59;95189.69;;;20.73;34.38
68179;BME280;69812;42.632;23.440;2023-05-01T10:36:36;95192.25;;;21.15;32.95
68179;BME280;69812;42.632;23.440;2023-05-01T10:39:03;95183.91;;;20.78;35.86
68179;BME280;69812;42.632;23.440;2023-05-01T10:42:04;95187.84;;;21.22;35.87
68179;BME280;69812;42.632;23.440;2023-05-01T10:44:30;95189.19;;;20.98;34.77
68179;BME280;69812;42.632;23.440;2023-05-01T10:46:56;95188.00;;;21.13;34.54
68179;BME280;69812;42.632;23.440;2023-05-01T10:49:24;95175.78;;;21.21;34.09
68179;BME280;69812;42.632;23.440;2023-05-01T10:52:07;95178.88;;;21.64;34.01
68179;BME280;69812;42.632;23.440;2023-05-01T10:54:35;95184.50;;;21.68;33.87
68179;BME280;69812;42.632;23.440;2023-05-01T10:57:02;95192.50;;;20.71;35.26
68179;BME280;69812;42.632;23.440;2023-05-01T11:02:21;95182.78;;;20.52;36.82
68179;BME280;69812;42.632;23.440;2023-05-01T11:04:48;95184.88;;;20.35;36.72
68179;BME280;69812;42.632;23.440;2023-05-01T11:07:18;95174.09;;;20.45;35.93
68179;BME280;69812;42.632;23.440;2023-05-01T11:10:01;95176.72;;;20.86;36.09
68179;BME280;69812;42.632;23.440;2023-05-01T11:15:11;95194.88;;;20.31;36.51
68179;BME280;69812;42.632;23.440;2023-05-01T11:17:44;95185.28;;;20.32;36.58
68179;BME280;69812;42.632;23.440;2023-05-01T11:20:11;95183.00;;;20.57;36.66
68179;BME280;69812;42.632;23.440;2023-05-01T11:22:39;95191.06;;;20.34;35.69
68179;BME280;69812;42.632;23.440;2023-05-01T11:25:18;95196.09;;;20.36;36.29
68179;BME280;69812;42.632;23.440;2023-05-01T11:27:55;95194.41;;;20.15;36.76
68179;BME280;69812;42.632;23.440;2023-05-01T11:30:21;95193.84;;;19.91;37.06
68179;BME280;69812;42.632;23.440;2023-05-01T11:32:49;95197.34;;;19.77;36.31
68179;BME280;69812;42.632;23.440;2023-05-01T11:35:17;95201.97;;;19.17;35.41
68179;BME280;69812;42.632;23.440;2023-05-01T11:37:43;95181.34;;;18.64;36.79
68179;BME280;69812;42.632;23.440;2023-05-01T11:40:25;95200.09;;;18.59;38.24
68179;BME280;69812;42.632;23.440;2023-05-01T11:43:07;95176.31;;;18.77;37.62
68179;BME280;69812;42.632;23.440;2023-05-01T11:45:34;95205.50;;;19.09;37.86
68179;BME280;69812;42.632;23.440;2023-05-01T11:48:00;95203.47;;;19.04;37.28
68179;BME280;69812;42.632;23.440;2023-05-01T11:50:33;95202.56;;;18.97;36.66
68179;BME280;69812;42.632;23.440;2023-05-01T11:53:00;95194.84;;;19.25;36.86
68179;BME280;69812;42.632;23.440;2023-05-01T11:55:30;95191.84;;;18.85;36.70
68179;BME280;69812;42.632;23.440;2023-05-01T11:57:56;95204.19;;;18.98;37.38
68179;BME280;69812;42.632;23.440;2023-05-01T12:00:32;95198.72;;;19.15;36.14
68179;BME280;69812;42.632;23.440;2023-05-01T12:03:02;95198.72;;;19.15;35.93
68179;BME280;69812;42.632;23.440;2023-05-01T12:05:29;95195.44;;;19.06;35.19
68179;BME280;69812;42.632;23.440;2023-05-01T12:08:23;95207.16;;;19.17;34.17
68179;BME280;69812;42.632;23.440;2023-05-01T12:10:52;95211.28;;;18.75;33.69
68179;BME280;69812;42.632;23.440;2023-05-01T12:13:20;95199.03;;;18.54;35.04
68179;BME280;69812;42.632;23.440;2023-05-01T12:15:50;95216.13;;;18.78;35.60
68179;BME280;69812;42.632;23.440;2023-05-01T12:18:17;95222.88;;;18.87;36.25
68179;BME280;69812;42.632;23.440;2023-05-01T12:20:53;95219.63;;;18.70;36.56
68179;BME280;69812;42.632;23.440;2023-05-01T12:23:35;95208.28;;;19.07;36.42
68179;BME280;69812;42.632;23.440;2023-05-01T12:26:22;95210.34;;;18.97;36.16
68179;BME280;69812;42.632;23.440;2023-05-01T12:31:18;95202.19;;;19.37;32.68
68179;BME280;69812;42.632;23.440;2023-05-01T12:33:55;95202.09;;;19.52;30.21
68179;BME280;69812;42.632;23.440;2023-05-01T12:36:22;95214.41;;;19.21;30.91
68179;BME280;69812;42.632;23.440;2023-05-01T12:39:11;95212.19;;;18.82;31.66
68179;BME280;69812;42.632;23.440;2023-05-01T12:41:45;95211.13;;;18.61;33.56
68179;BME280;69812;42.632;23.440;2023-05-01T12:44:23;95207.25;;;17.83;38.29
68179;BME280;69812;42.632;23.440;2023-05-01T12:47:02;95207.19;;;17.45;39.13
68179;BME280;69812;42.632;23.440;2023-05-01T12:49:28;95213.75;;;17.56;40.42
68179;BME280;69812;42.632;23.440;2023-05-01T12:51:55;95201.56;;;17.41;40.51
68179;BME280;69812;42.632;23.440;2023-05-01T12:54:33;95198.88;;;17.50;41.06
68179;BME280;69812;42.632;23.440;2023-05-01T12:57:14;95198.63;;;17.82;41.43
68179;BME280;69812;42.632;23.440;2023-05-01T12:59:41;95206.75;;;18.17;39.84
68179;BME280;69812;42.632;23.440;2023-05-01T13:02:09;95200.19;;;18.21;38.62
68179;BME280;69812;42.632;23.440;2023-05-01T13:04:36;95201.03;;;18.37;38.19
68179;BME280;69812;42.632;23.440;2023-05-01T13:07:26;95209.25;;;18.25;39.88
68179;BME280;69812;42.632;23.440;2023-05-01T13:09:56;95202.44;;;18.10;39.41
68179;BME280;69812;42.632;23.440;2023-05-01T13:12:23;95197.84;;;17.97;41.55
68179;BME280;69812;42.632;23.440;2023-05-01T13:14:52;95195.91;;;18.14;42.91
68179;BME280;69812;42.632;23.440;2023-05-01T13:19:55;95217.22;;;17.48;44.05
68179;BME280;69812;42.632;23.440;2023-05-01T13:24:56;95208.00;;;16.91;44.57
68179;BME280;69812;42.632;23.440;2023-05-01T13:27:22;95211.31;;;17.08;44.14
68179;BME280;69812;42.632;23.440;2023-05-01T13:29:57;95233.69;;;17.32;43.34
68179;BME280;69812;42.632;23.440;2023-05-01T13:32:28;95215.94;;;17.21;43.22
68179;BME280;69812;42.632;23.440;2023-05-01T13:34:54;95231.66;;;16.96;44.45